sensor_id;sensor_type;location;lat;lon;timestamp;pressure;altitude;pressure_sealevel;temperature;humidity
59315;BME280;46521;50.160;20.802;2022-08-19T00:08:52;99175.41;;;23.06;58.66
59315;BME280;46521;50.160;20.802;2022-08-19T00:35:55;99152.69;;;22.92;59.26
59315;BME280;46521;50.160;20.802;2022-08-19T00:45:57;99167.22;;;22.85;59.38
59315;BME280;46521;50.160;20.802;2022-08-19T00:55:59;99159.08;;;22.80;59.71
59315;BME280;46521;50.160;20.802;2022-08-19T01:06:02;99148.81;;;22.77;59.61
59315;BME280;46521;50.160;20.802;2022-08-19T01:16:09;99163.07;;;22.73;59.98
59315;BME280;46521;50.160;20.802;2022-08-19T01:26:19;99160.61;;;22.66;60.25
59315;BME280;46521;50.160;20.802;2022-08-19T01:36:29;99141.46;;;22.62;60.30
59315;BME280;46521;50.160;20.802;2022-08-19T01:46:31;99134.16;;;22.58;60.46
59315;BME280;46521;50.160;20.802;2022-08-19T01:56:33;99127.08;;;22.46;60.81
59315;BME280;46521;50.160;20.802;2022-08-19T02:06:35;99121.09;;;22.39;61.03
59315;BME280;46521;50.160;20.802;2022-08-19T02:16:36;99121.33;;;22.33;61.15
59315;BME280;46521;50.160;20.802;2022-08-19T02:26:39;99125.81;;;22.27;61.39
59315;BME280;46521;50.160;20.802;2022-08-19T02:36:40;99101.29;;;22.23;61.52
59315;BME280;46521;50.160;20.802;2022-08-19T02:46:42;99101.27;;;22.18;61.48
59315;BME280;46521;50.160;20.802;2022-08-19T02:56:44;99117.10;;;22.14;61.93
59315;BME280;46521;50.160;20.802;2022-08-19T03:06:47;99125.69;;;22.11;62.08
59315;BME280;46521;50.160;20.802;2022-08-19T03:16:50;99126.75;;;22.05;61.94
59315;BME280;46521;50.160;20.802;2022-08-19T03:26:54;99132.06;;;22.00;62.22
59315;BME280;46521;50.160;20.802;2022-08-19T03:37:02;99138.18;;;21.90;62.21
59315;BME280;46521;50.160;20.802;2022-08-19T03:47:05;99151.13;;;21.93;62.58
59315;BME280;46521;50.160;20.802;2022-08-19T03:57:06;99170.45;;;21.85;62.46
59315;BME280;46521;50.160;20.802;2022-08-19T04:07:11;99176.52;;;21.75;62.90
59315;BME280;46521;50.160;20.802;2022-08-19T04:17:13;99173.69;;;21.87;62.96
59315;BME280;46521;50.160;20.802;2022-08-19T04:27:15;99169.47;;;21.96;63.26
59315;BME280;46521;50.160;20.802;2022-08-19T04:37:16;99172.23;;;22.07;63.39
59315;BME280;46521;50.160;20.802;2022-08-19T04:47:18;99184.75;;;22.18;63.54
59315;BME280;46521;50.160;20.802;2022-08-19T04:57:19;99174.46;;;22.42;63.53
59315;BME280;46521;50.160;20.802;2022-08-19T05:07:20;99164.26;;;22.87;63.74
59315;BME280;46521;50.160;20.802;2022-08-19T05:17:22;99168.82;;;23.34;63.05
59315;BME280;46521;50.160;20.802;2022-08-19T05:27:23;99147.13;;;23.92;62.57
59315;BME280;46521;50.160;20.802;2022-08-19T05:37:25;99152.53;;;24.44;61.73
59315;BME280;46521;50.160;20.802;2022-08-19T05:47:28;99169.25;;;24.82;61.21
59315;BME280;46521;50.160;20.802;2022-08-19T05:57:29;99177.20;;;25.39;60.80
59315;BME280;46521;50.160;20.802;2022-08-19T06:07:31;99194.86;;;25.81;59.87
59315;BME280;46521;50.160;20.802;2022-08-19T06:17:32;99200.86;;;26.22;58.48
59315;BME280;46521;50.160;20.802;2022-08-19T06:27:36;99212.09;;;26.74;57.63
59315;BME280;46521;50.160;20.802;2022-08-19T06:37:38;99197.11;;;27.30;57.47
59315;BME280;46521;50.160;20.802;2022-08-19T06:47:39;99208.48;;;27.76;56.47
59315;BME280;46521;50.160;20.802;2022-08-19T06:57:40;99186.83;;;28.28;55.38
59315;BME280;46521;50.160;20.802;2022-08-19T07:07:43;99187.44;;;28.71;54.29
59315;BME280;46521;50.160;20.802;2022-08-19T07:17:44;99196.86;;;29.07;53.73
59315;BME280;46521;50.160;20.802;2022-08-19T07:27:49;99196.47;;;29.41;52.34
59315;BME280;46521;50.160;20.802;2022-08-19T07:37:54;99223.25;;;29.90;51.21
59315;BME280;46521;50.160;20.802;2022-08-19T07:47:56;99209.75;;;30.30;50.67
59315;BME280;46521;50.160;20.802;2022-08-19T07:57:59;99218.23;;;30.73;49.53
59315;BME280;46521;50.160;20.802;2022-08-19T08:08:00;99220.39;;;31.17;48.59
59315;BME280;46521;50.160;20.802;2022-08-19T08:18:20;99225.34;;;31.55;48.09
59315;BME280;46521;50.160;20.802;2022-08-19T08:28:22;99232.63;;;32.03;47.33
59315;BME280;46521;50.160;20.802;2022-08-19T08:38:24;99243.27;;;32.22;46.32
59315;BME280;46521;50.160;20.802;2022-08-19T08:48:45;99234.84;;;32.62;45.65
59315;BME280;46521;50.160;20.802;2022-08-19T08:58:56;99232.34;;;32.96;44.75
59315;BME280;46521;50.160;20.802;2022-08-19T09:09:03;99232.66;;;33.03;44.79
59315;BME280;46521;50.160;20.802;2022-08-19T09:19:06;99239.97;;;33.29;43.46
59315;BME280;46521;50.160;20.802;2022-08-19T09:29:08;99242.33;;;33.69;42.92
59315;BME280;46521;50.160;20.802;2022-08-19T09:39:11;99229.09;;;33.92;42.42
59315;BME280;46521;50.160;20.802;2022-08-19T09:49:12;99223.83;;;34.08;41.61
59315;BME280;46521;50.160;20.802;2022-08-19T09:59:14;99216.45;;;34.00;42.25
59315;BME280;46521;50.160;20.802;2022-08-19T10:09:17;99213.46;;;33.92;41.71
59315;BME280;46521;50.160;20.802;2022-08-19T10:19:35;99209.16;;;34.04;41.83
59315;BME280;46521;50.160;20.802;2022-08-19T10:29:37;99200.27;;;34.07;41.35
59315;BME280;46521;50.160;20.802;2022-08-19T10:39:38;99203.52;;;34.21;41.28
59315;BME280;46521;50.160;20.802;2022-08-19T10:49:39;99210.36;;;34.36;41.08
59315;BME280;46521;50.160;20.802;2022-08-19T11:00:01;99206.75;;;34.57;40.40
59315;BME280;46521;50.160;20.802;2022-08-19T11:10:02;99194.97;;;34.69;39.92
59315;BME280;46521;50.160;20.802;2022-08-19T11:20:05;99186.16;;;34.63;40.20
59315;BME280;46521;50.160;20.802;2022-08-19T11:30:08;99182.40;;;34.68;39.23
59315;BME280;46521;50.160;20.802;2022-08-19T11:40:10;99167.55;;;34.81;38.39
59315;BME280;46521;50.160;20.802;2022-08-19T11:50:14;99157.04;;;34.83;38.64
59315;BME280;46521;50.160;20.802;2022-08-19T12:00:17;99164.30;;;34.66;38.15
59315;BME280;46521;50.160;20.802;2022-08-19T12:10:22;99136.94;;;34.58;37.67
59315;BME280;46521;50.160;20.802;2022-08-19T12:20:55;99126.33;;;34.56;37.82
59315;BME280;46521;50.160;20.802;2022-08-19T12:30:57;99125.73;;;34.51;36.96
59315;BME280;46521;50.160;20.802;2022-08-19T12:40:59;99119.88;;;34.40;36.92
59315;BME280;46521;50.160;20.802;2022-08-19T12:51:10;99110.53;;;34.53;37.32
59315;BME280;46521;50.160;20.802;2022-08-19T13:01:15;99118.44;;;34.55;37.08
59315;BME280;46521;50.160;20.802;2022-08-19T13:11:19;99127.44;;;34.43;36.82
59315;BME280;46521;50.160;20.802;2022-08-19T13:21:27;99121.59;;;34.32;36.73
59315;BME280;46521;50.160;20.802;2022-08-19T13:31:32;99115.58;;;34.18;36.27
59315;BME280;46521;50.160;20.802;2022-08-19T13:41:52;99098.75;;;34.07;36.39
59315;BME280;46521;50.160;20.802;2022-08-19T13:51:54;99102.25;;;33.95;36.79
59315;BME280;46521;50.160;20.802;2022-08-19T14:02:00;99110.58;;;33.86;36.62
59315;BME280;46521;50.160;20.802;2022-08-19T14:12:02;99089.45;;;33.66;36.66
59315;BME280;46521;50.160;20.802;2022-08-19T14:22:04;99091.06;;;33.46;36.39
59315;BME280;46521;50.160;20.802;2022-08-19T14:32:06;99082.64;;;33.30;36.96
59315;BME280;46521;50.160;20.802;2022-08-19T14:42:08;99079.80;;;33.17;37.34
59315;BME280;46521;50.160;20.802;2022-08-19T14:52:09;99076.23;;;32.96;37.17
59315;BME280;46521;50.160;20.802;2022-08-19T15:02:11;99080.69;;;32.79;37.61
59315;BME280;46521;50.160;20.802;2022-08-19T15:12:12;99089.63;;;32.59;37.64
59315;BME280;46521;50.160;20.802;2022-08-19T15:22:17;99083.88;;;32.43;38.03
59315;BME280;46521;50.160;20.802;2022-08-19T15:32:19;99072.06;;;32.21;38.47
59315;BME280;46521;50.160;20.802;2022-08-19T15:42:21;99048.59;;;32.03;38.44
59315;BME280;46521;50.160;20.802;2022-08-19T15:52:22;99040.44;;;31.85;39.07
59315;BME280;46521;50.160;20.802;2022-08-19T16:02:26;99042.38;;;31.67;38.84
59315;BME280;46521;50.160;20.802;2022-08-19T16:12:47;99027.27;;;31.43;39.60
59315;BME280;46521;50.160;20.802;2022-08-19T16:22:48;99029.20;;;31.17;40.43
59315;BME280;46521;50.160;20.802;2022-08-19T16:32:50;99029.61;;;30.84;40.78
59315;BME280;46521;50.160;20.802;2022-08-19T16:42:51;99049.59;;;30.53;41.14
59315;BME280;46521;50.160;20.802;2022-08-19T16:52:53;99041.30;;;30.27;42.15
59315;BME280;46521;50.160;20.802;2022-08-19T17:02:56;99053.97;;;30.00;42.15
59315;BME280;46521;50.160;20.802;2022-08-19T17:12:57;99055.38;;;29.75;42.44
59315;BME280;46521;50.160;20.802;2022-08-19T17:22:59;99054.78;;;29.55;42.64
59315;BME280;46521;50.160;20.802;2022-08-19T17:33:02;99057.98;;;29.35;43.30
59315;BME280;46521;50.160;20.802;2022-08-19T17:43:04;99074.23;;;29.12;43.38
59315;BME280;46521;50.160;20.802;2022-08-19T17:53:08;99074.89;;;28.95;43.70
59315;BME280;46521;50.160;20.802;2022-08-19T18:03:10;99068.85;;;28.70;44.07
59315;BME280;46521;50.160;20.802;2022-08-19T18:23:25;99092.78;;;28.40;44.37
59315;BME280;46521;50.160;20.802;2022-08-19T18:33:29;99093.98;;;28.34;44.44
59315;BME280;46521;50.160;20.802;2022-08-19T18:43:32;99105.33;;;28.22;44.87
59315;BME280;46521;50.160;20.802;2022-08-19T18:54:06;99119.41;;;28.11;45.32
59315;BME280;46521;50.160;20.802;2022-08-19T19:04:25;99130.14;;;28.02;45.38
59315;BME280;46521;50.160;20.802;2022-08-19T19:14:33;99142.25;;;27.91;45.91
59315;BME280;46521;50.160;20.802;2022-08-19T19:24:37;99150.04;;;27.78;45.65
59315;BME280;46521;50.160;20.802;2022-08-19T19:34:39;99138.30;;;27.64;46.13
59315;BME280;46521;50.160;20.802;2022-08-19T19:44:42;99145.03;;;27.47;46.06
59315;BME280;46521;50.160;20.802;2022-08-19T19:54:46;99142.56;;;27.27;46.89
59315;BME280;46521;50.160;20.802;2022-08-19T20:04:48;99156.33;;;27.11;47.05
59315;BME280;46521;50.160;20.802;2022-08-19T20:14:51;99152.77;;;26.92;47.86
59315;BME280;46521;50.160;20.802;2022-08-19T20:24:52;99152.87;;;26.82;47.90
59315;BME280;46521;50.160;20.802;2022-08-19T20:34:57;99145.94;;;26.70;48.03
59315;BME280;46521;50.160;20.802;2022-08-19T20:45:01;99156.63;;;26.56;48.14
59315;BME280;46521;50.160;20.802;2022-08-19T20:55:03;99171.84;;;26.23;49.14
59315;BME280;46521;50.160;20.802;2022-08-19T21:05:05;99160.67;;;25.90;49.85
59315;BME280;46521;50.160;20.802;2022-08-19T21:15:07;99180.28;;;25.71;50.30
59315;BME280;46521;50.160;20.802;2022-08-19T21:25:10;99187.48;;;25.42;50.79
59315;BME280;46521;50.160;20.802;2022-08-19T21:35:11;99191.05;;;25.27;51.58
59315;BME280;46521;50.160;20.802;2022-08-19T21:45:14;99195.68;;;25.16;52.26
59315;BME280;46521;50.160;20.802;2022-08-19T21:55:18;99195.70;;;25.06;52.95
59315;BME280;46521;50.160;20.802;2022-08-19T22:05:20;99195.74;;;24.95;52.96
59315;BME280;46521;50.160;20.802;2022-08-19T22:15:23;99184.39;;;24.88;53.56
59315;BME280;46521;50.160;20.802;2022-08-19T22:25:35;99206.86;;;24.78;53.84
59315;BME280;46521;50.160;20.802;2022-08-19T22:35:40;99188.75;;;24.74;54.41
59315;BME280;46521;50.160;20.802;2022-08-19T22:45:43;99194.70;;;24.71;54.46
59315;BME280;46521;50.160;20.802;2022-08-19T22:55:45;99196.31;;;24.41;55.12
59315;BME280;46521;50.160;20.802;2022-08-19T23:05:46;99195.23;;;24.32;55.29
59315;BME280;46521;50.160;20.802;2022-08-19T23:15:48;99204.41;;;24.25;55.93
59315;BME280;46521;50.160;20.802;2022-08-19T23:25:51;99201.70;;;24.10;56.58
59315;BME280;46521;50.160;20.802;2022-08-19T23:36:00;99191.42;;;24.12;57.01
59315;BME280;46521;50.160;20.802;2022-08-19T23:46:03;99197.92;;;24.11;57.55
59315;BME280;46521;50.160;20.802;2022-08-19T23:56:07;99191.16;;;24.03;57.98
